Terminal Aerodrome Forecast
Issued by NWS

Current Version | Previous Version | Text Only | Print | Product List | Glossary Off
Versions: 1 2 3 4 5 6 7 8 9 10 11 12 13 14

000
FTUS44 KOHX 311700
TAFCKV
TAF
KCKV 311724Z 3118/0118 VRB05KT P6SM SCT050
     FM010100 VRB02KT P6SM SCT200
     FM011000 00000KT 2SM BR FEW003 SCT070
     FM011200 00000KT P6SM SCT250=

USA.gov is the U.S. government's official web portal to all federal, state and local government web resources and services.